createdAt,value
2022-12-25T00:01:24.387Z,91.10
2022-12-25T00:04:48.771Z,91.00
2022-12-25T00:08:16.129Z,91.00
2022-12-25T00:11:39.961Z,91.00
2022-12-25T00:15:05.747Z,90.90
2022-12-25T00:18:30.141Z,90.90
2022-12-25T00:21:54.513Z,91.00
2022-12-25T00:25:19.894Z,90.90
2022-12-25T00:28:46.523Z,90.90
2022-12-25T00:32:11.366Z,90.80
2022-12-25T00:35:38.166Z,90.80
2022-12-25T00:39:02.218Z,90.60
2022-12-25T00:42:28.996Z,90.60
2022-12-25T00:45:58.426Z,90.50
2022-12-25T00:49:24.014Z,90.60
2022-12-25T00:52:48.626Z,90.60
2022-12-25T00:56:15.490Z,90.70
2022-12-25T00:59:40.971Z,90.70
2022-12-25T01:03:04.790Z,90.90
2022-12-25T01:06:28.794Z,91.00
2022-12-25T01:10:10.870Z,91.00
2022-12-25T01:13:37.536Z,91.00
2022-12-25T01:17:03.566Z,90.90
2022-12-25T01:20:29.746Z,90.90
2022-12-25T01:23:54.745Z,90.90
2022-12-25T01:27:18.614Z,90.80
2022-12-25T01:30:49.186Z,90.70
2022-12-25T01:34:14.288Z,90.70
2022-12-25T01:37:38.611Z,90.70
2022-12-25T01:41:02.639Z,90.80
2022-12-25T01:45:05.022Z,90.70
2022-12-25T01:48:49.208Z,90.60
2022-12-25T01:52:23.922Z,90.70
2022-12-25T01:55:51.714Z,90.60
2022-12-25T01:59:19.503Z,90.70
2022-12-25T02:02:45.440Z,90.80
2022-12-25T02:06:12.492Z,90.70
2022-12-25T02:09:38.706Z,90.60
2022-12-25T02:13:04.174Z,90.60
2022-12-25T02:16:34.869Z,90.60
2022-12-25T02:20:46.511Z,90.60
2022-12-25T02:24:38.474Z,90.50
2022-12-25T02:28:12.908Z,90.50
2022-12-25T02:31:45.216Z,90.50
2022-12-25T02:35:16.339Z,90.60
2022-12-25T02:39:03.920Z,90.60
2022-12-25T02:42:54.933Z,90.60
2022-12-25T02:46:42.914Z,90.50
2022-12-25T02:50:28.795Z,90.60
2022-12-25T02:54:13.409Z,90.50
2022-12-25T02:58:01.052Z,90.50
2022-12-25T03:01:50.046Z,90.50
2022-12-25T03:05:35.962Z,90.50
2022-12-25T03:09:21.970Z,90.40
2022-12-25T03:12:50.022Z,90.40
2022-12-25T03:16:31.282Z,90.30
2022-12-25T03:20:14.989Z,90.20
2022-12-25T03:23:59.873Z,90.20
2022-12-25T03:27:25.456Z,90.10
2022-12-25T03:31:13.687Z,90.10
2022-12-25T03:35:00.990Z,90.10
2022-12-25T03:38:51.979Z,90.30
2022-12-25T03:42:47.020Z,90.60
2022-12-25T03:46:33.057Z,90.80
2022-12-25T03:50:22.063Z,91.00
2022-12-25T03:54:09.034Z,91.10
2022-12-25T03:57:52.372Z,91.10
2022-12-25T04:01:34.362Z,91.20
2022-12-25T04:05:16.096Z,91.30
2022-12-25T04:08:58.071Z,91.40
2022-12-25T04:12:43.062Z,91.60
2022-12-25T04:16:24.408Z,91.50
2022-12-25T04:20:06.093Z,91.40
2022-12-25T04:23:48.055Z,91.60
2022-12-25T04:27:30.118Z,91.80
2022-12-25T04:31:18.981Z,91.80
2022-12-25T04:35:01.099Z,91.80
2022-12-25T04:38:24.648Z,91.90
2022-12-25T04:41:48.869Z,92.00
2022-12-25T04:45:13.097Z,92.00
2022-12-25T04:48:40.201Z,91.90
2022-12-25T04:52:03.839Z,91.90
2022-12-25T04:55:27.849Z,91.90
2022-12-25T04:58:51.871Z,92.10
2022-12-25T05:02:18.486Z,91.60
2022-12-25T05:05:44.873Z,91.60
2022-12-25T05:09:08.796Z,91.40
2022-12-25T05:12:32.888Z,91.50
2022-12-25T05:15:56.899Z,91.30
2022-12-25T05:19:20.951Z,91.40
2022-12-25T05:22:48.722Z,91.30
2022-12-25T05:26:12.259Z,91.20
2022-12-25T05:29:40.391Z,91.20
2022-12-25T05:33:05.075Z,91.30
2022-12-25T05:36:28.944Z,91.50
2022-12-25T05:39:54.294Z,91.10
2022-12-25T05:43:19.312Z,91.20
2022-12-25T05:46:43.140Z,91.00
2022-12-25T05:50:08.231Z,91.00
2022-12-25T05:53:31.940Z,90.90
2022-12-25T05:56:57.307Z,90.90
2022-12-25T06:00:21.811Z,90.80
2022-12-25T06:03:45.977Z,90.70
2022-12-25T06:07:09.962Z,90.70
2022-12-25T06:10:33.988Z,90.50
2022-12-25T06:13:59.299Z,90.60
2022-12-25T06:17:25.812Z,90.50
2022-12-25T06:20:50.035Z,90.60
2022-12-25T06:24:20.834Z,90.50
2022-12-25T06:27:44.937Z,90.50
2022-12-25T06:31:12.421Z,90.50
2022-12-25T06:34:36.949Z,90.40
2022-12-25T06:38:01.092Z,90.40
2022-12-25T06:41:28.558Z,90.30
2022-12-25T06:44:53.231Z,90.40
2022-12-25T06:48:18.099Z,90.40
2022-12-25T06:51:42.087Z,90.40
2022-12-25T06:55:06.667Z,90.40
2022-12-25T06:58:30.998Z,90.50
2022-12-25T07:01:58.023Z,90.60
2022-12-25T07:05:23.418Z,90.60
2022-12-25T07:08:47.041Z,90.70
2022-12-25T07:12:16.995Z,90.70
2022-12-25T07:15:44.269Z,90.70
2022-12-25T07:19:07.991Z,90.70
2022-12-25T07:22:33.404Z,90.80
2022-12-25T07:26:00.041Z,90.70
2022-12-25T07:29:26.180Z,90.70
2022-12-25T07:32:52.254Z,90.60
2022-12-25T07:36:16.262Z,90.60
2022-12-25T07:39:41.673Z,90.60
2022-12-25T07:43:06.125Z,90.60
2022-12-25T07:46:31.065Z,90.70
2022-12-25T07:49:57.163Z,90.60
2022-12-25T07:53:20.679Z,90.50
2022-12-25T07:56:46.442Z,90.30
2022-12-25T08:00:11.669Z,90.10
2022-12-25T08:03:38.736Z,90.00
2022-12-25T08:07:03.324Z,90.00
2022-12-25T08:10:31.383Z,90.00
2022-12-25T08:13:56.411Z,90.00
2022-12-25T08:17:23.913Z,90.00
2022-12-25T08:20:48.132Z,89.90
2022-12-25T08:24:12.076Z,89.60
2022-12-25T08:27:36.402Z,89.40
2022-12-25T08:31:06.419Z,89.20
2022-12-25T08:34:30.160Z,89.40
2022-12-25T08:38:00.995Z,89.60
2022-12-25T08:41:25.127Z,89.70
2022-12-25T08:44:48.635Z,89.60
2022-12-25T08:48:13.805Z,89.80
2022-12-25T08:51:37.562Z,89.70
2022-12-25T08:55:01.098Z,89.60
2022-12-25T08:58:24.669Z,89.60
2022-12-25T09:01:48.262Z,89.40
2022-12-25T09:05:13.249Z,89.20
2022-12-25T09:08:41.125Z,89.60
2022-12-25T09:12:09.683Z,89.30
2022-12-25T09:15:33.301Z,89.00
2022-12-25T09:18:58.729Z,89.00
2022-12-25T09:22:23.564Z,89.30
2022-12-25T09:25:47.120Z,89.40
2022-12-25T09:29:10.578Z,89.60
2022-12-25T09:32:34.201Z,89.40
2022-12-25T09:35:59.011Z,89.50
2022-12-25T09:39:24.201Z,89.40
2022-12-25T09:42:49.527Z,89.30
2022-12-25T09:46:18.241Z,89.30
2022-12-25T09:49:48.120Z,89.40
2022-12-25T09:53:16.784Z,89.40
2022-12-25T09:56:41.664Z,89.90
2022-12-25T10:00:07.946Z,89.70
2022-12-25T10:03:47.788Z,89.90
2022-12-25T10:07:18.114Z,89.90
2022-12-25T10:10:51.175Z,90.00
2022-12-25T10:14:24.821Z,89.80
2022-12-25T10:18:03.193Z,89.60
2022-12-25T10:21:27.938Z,89.80
2022-12-25T10:24:54.097Z,89.80
2022-12-25T10:28:24.601Z,90.00
2022-12-25T10:31:54.637Z,90.00
2022-12-25T10:35:20.410Z,89.90
2022-12-25T10:38:44.191Z,90.10
2022-12-25T10:42:24.656Z,90.20
2022-12-25T10:45:50.180Z,90.20
2022-12-25T10:49:18.111Z,90.30
2022-12-25T10:52:56.124Z,90.40
2022-12-25T10:56:20.806Z,90.50
2022-12-25T10:59:45.562Z,90.80
2022-12-25T11:03:22.295Z,91.10
2022-12-25T11:06:57.705Z,91.40
2022-12-25T11:10:23.987Z,92.10
2022-12-25T11:13:51.496Z,92.80
2022-12-25T11:17:22.484Z,92.70
2022-12-25T11:20:50.278Z,92.90
2022-12-25T11:24:21.354Z,93.10
2022-12-25T11:27:50.268Z,93.30
2022-12-25T11:31:19.190Z,93.50
2022-12-25T11:34:45.395Z,93.20
2022-12-25T11:38:10.381Z,93.20
2022-12-25T11:41:37.156Z,93.30
2022-12-25T11:45:05.107Z,93.50
2022-12-25T11:48:34.842Z,93.40
2022-12-25T11:51:59.124Z,93.20
2022-12-25T11:55:27.174Z,93.40
2022-12-25T11:58:54.456Z,93.60
2022-12-25T12:02:25.870Z,93.80
2022-12-25T12:05:54.792Z,93.70
2022-12-25T12:09:31.001Z,93.70
2022-12-25T12:13:01.363Z,93.70
2022-12-25T12:16:26.434Z,93.70
2022-12-25T12:19:50.415Z,93.80
2022-12-25T12:23:17.854Z,93.70
2022-12-25T12:26:44.679Z,93.90
2022-12-25T12:30:23.555Z,94.00
2022-12-25T12:33:54.106Z,94.00
2022-12-25T12:37:27.233Z,94.00
2022-12-25T12:40:55.711Z,94.00
2022-12-25T12:44:19.779Z,94.00
2022-12-25T12:47:46.407Z,93.90
2022-12-25T12:51:13.817Z,93.80
2022-12-25T12:54:56.480Z,93.70
2022-12-25T12:58:30.876Z,93.60
2022-12-25T13:02:13.585Z,93.50
2022-12-25T13:05:42.362Z,93.60
2022-12-25T13:09:16.665Z,93.60
2022-12-25T13:12:40.305Z,93.80
2022-12-25T13:16:05.043Z,93.90
2022-12-25T13:19:30.067Z,93.90
2022-12-25T13:22:53.880Z,93.90
2022-12-25T13:26:19.161Z,93.90
2022-12-25T13:29:42.740Z,93.80
2022-12-25T13:33:06.387Z,93.80
2022-12-25T13:36:35.949Z,93.90
2022-12-25T13:40:01.841Z,93.90
2022-12-25T13:43:27.717Z,93.80
2022-12-25T13:46:51.435Z,93.90
2022-12-25T13:50:18.343Z,93.70
2022-12-25T13:53:41.913Z,93.80
2022-12-25T13:57:13.037Z,93.60
2022-12-25T14:00:41.733Z,93.60
2022-12-25T14:04:05.425Z,93.60
2022-12-25T14:07:29.153Z,93.80
2022-12-25T14:10:54.041Z,93.90
2022-12-25T14:14:20.621Z,93.80
2022-12-25T14:17:46.225Z,93.90
2022-12-25T14:21:16.372Z,94.00
2022-12-25T14:24:41.160Z,93.90
2022-12-25T14:28:08.831Z,93.90
2022-12-25T14:31:33.682Z,93.90
2022-12-25T14:35:03.308Z,94.00
2022-12-25T14:38:29.324Z,94.00
2022-12-25T14:41:54.941Z,93.90
2022-12-25T14:45:29.205Z,94.00
2022-12-25T14:49:01.165Z,94.00
2022-12-25T14:52:30.291Z,93.90
2022-12-25T14:55:55.791Z,94.20
2022-12-25T14:59:22.531Z,94.20
2022-12-25T15:02:49.100Z,94.30
2022-12-25T15:06:20.083Z,94.30
2022-12-25T15:09:45.050Z,94.30
2022-12-25T15:13:08.649Z,94.10
2022-12-25T15:16:37.913Z,94.30
2022-12-25T15:20:03.926Z,94.30
2022-12-25T15:23:27.648Z,94.20
2022-12-25T15:26:53.347Z,93.70
2022-12-25T15:30:17.313Z,94.20
2022-12-25T15:33:44.253Z,94.40
2022-12-25T15:37:08.103Z,94.50
2022-12-25T15:40:31.927Z,94.60
2022-12-25T15:43:56.945Z,94.70
2022-12-25T15:47:22.861Z,94.60
2022-12-25T15:50:46.782Z,94.60
2022-12-25T15:54:10.822Z,94.70
2022-12-25T15:57:35.100Z,94.70
2022-12-25T16:01:00.065Z,94.90
2022-12-25T16:04:24.872Z,94.90
2022-12-25T16:07:48.559Z,94.90
2022-12-25T16:11:12.468Z,94.80
2022-12-25T16:14:36.080Z,94.80
2022-12-25T16:18:01.176Z,94.20
2022-12-25T16:21:25.403Z,94.10
2022-12-25T16:24:49.461Z,94.10
2022-12-25T16:28:13.100Z,94.00
2022-12-25T16:31:37.367Z,94.10
2022-12-25T16:35:02.735Z,94.00
2022-12-25T16:38:27.315Z,93.90
2022-12-25T16:41:50.857Z,93.90
2022-12-25T16:45:15.048Z,93.80
2022-12-25T16:48:38.801Z,93.60
2022-12-25T16:52:03.868Z,93.60
2022-12-25T16:55:30.132Z,93.50
2022-12-25T16:58:54.098Z,93.60
2022-12-25T17:02:19.467Z,93.90
2022-12-25T17:05:43.105Z,93.50
2022-12-25T17:09:08.028Z,93.40
2022-12-25T17:12:31.577Z,93.40
2022-12-25T17:15:55.210Z,93.30
2022-12-25T17:19:20.813Z,93.20
2022-12-25T17:22:44.388Z,93.00
2022-12-25T17:26:09.395Z,93.10
2022-12-25T17:29:33.051Z,93.00
2022-12-25T17:32:57.515Z,93.00
2022-12-25T17:36:22.557Z,93.10
2022-12-25T17:39:46.103Z,93.00
2022-12-25T17:43:14.339Z,93.00
2022-12-25T17:46:42.579Z,93.40
2022-12-25T17:50:07.455Z,93.00
2022-12-25T17:53:31.301Z,93.00
2022-12-25T17:56:54.916Z,92.90
2022-12-25T18:00:20.765Z,92.80
2022-12-25T18:03:45.349Z,93.10
2022-12-25T18:07:09.292Z,92.80
2022-12-25T18:10:37.371Z,92.80
2022-12-25T18:14:04.070Z,92.90
2022-12-25T18:17:29.194Z,92.80
2022-12-25T18:20:54.697Z,92.80
2022-12-25T18:24:18.545Z,92.80
2022-12-25T18:27:42.395Z,92.80
2022-12-25T18:31:09.112Z,92.80
2022-12-25T18:34:34.091Z,92.90
2022-12-25T18:37:57.774Z,92.90
2022-12-25T18:41:22.306Z,93.00
2022-12-25T18:44:46.022Z,93.10
2022-12-25T18:48:11.437Z,93.30
2022-12-25T18:51:37.205Z,93.40
2022-12-25T18:55:01.060Z,93.40
2022-12-25T18:58:26.184Z,93.40
2022-12-25T19:01:51.296Z,93.40
2022-12-25T19:05:15.155Z,93.50
2022-12-25T19:08:40.051Z,93.40
2022-12-25T19:12:03.796Z,93.50
2022-12-25T19:15:27.326Z,93.50
2022-12-25T19:18:50.904Z,93.50
2022-12-25T19:22:14.867Z,93.50
2022-12-25T19:25:41.334Z,93.50
2022-12-25T19:29:05.104Z,93.60
2022-12-25T19:32:28.647Z,93.70
2022-12-25T19:35:52.283Z,93.70
2022-12-25T19:39:16.846Z,93.80
2022-12-25T19:42:42.198Z,93.80
2022-12-25T19:46:07.003Z,93.80
2022-12-25T19:49:30.635Z,93.80
2022-12-25T19:52:54.200Z,93.80
2022-12-25T19:56:18.326Z,93.90
2022-12-25T19:59:43.225Z,93.90
2022-12-25T20:03:06.837Z,93.90
2022-12-25T20:06:32.046Z,94.10
2022-12-25T20:09:55.622Z,94.10
2022-12-25T20:13:20.327Z,94.20
2022-12-25T20:16:45.391Z,94.30
2022-12-25T20:20:09.671Z,94.40
2022-12-25T20:23:33.668Z,94.50
2022-12-25T20:26:59.531Z,94.70
2022-12-25T20:30:23.478Z,94.80
2022-12-25T20:33:48.395Z,94.80
2022-12-25T20:37:11.978Z,94.80
2022-12-25T20:41:00.074Z,95.00
2022-12-25T20:44:19.608Z,95.00
2022-12-25T20:47:43.248Z,95.10
2022-12-25T20:51:10.302Z,95.10
2022-12-25T20:54:34.097Z,95.20
2022-12-25T20:57:57.685Z,95.30
2022-12-25T21:01:21.355Z,95.30
2022-12-25T21:04:50.556Z,95.40
2022-12-25T21:08:19.658Z,95.40
2022-12-25T21:11:43.169Z,95.40
2022-12-25T21:15:13.266Z,95.40
2022-12-25T21:18:39.111Z,95.40
2022-12-25T21:22:02.688Z,95.50
2022-12-25T21:25:29.564Z,95.50
2022-12-25T21:28:54.985Z,95.50
2022-12-25T21:32:35.996Z,95.50
2022-12-25T21:36:06.782Z,95.50
2022-12-25T21:39:30.336Z,95.50
2022-12-25T21:42:55.302Z,95.60
2022-12-25T21:46:19.180Z,95.50
2022-12-25T21:50:00.177Z,95.50
2022-12-25T21:53:24.315Z,95.50
2022-12-25T21:56:48.999Z,95.50
2022-12-25T22:00:14.910Z,95.40
2022-12-25T22:03:38.843Z,95.40
2022-12-25T22:07:20.591Z,95.40
2022-12-25T22:10:44.145Z,95.30
2022-12-25T22:14:51.470Z,95.30
2022-12-25T22:18:28.363Z,95.40
2022-12-25T22:21:52.770Z,95.30
2022-12-25T22:25:17.307Z,95.30
2022-12-25T22:28:41.039Z,95.40
2022-12-25T22:32:05.030Z,95.30
2022-12-25T22:35:29.962Z,95.30
2022-12-25T22:38:53.563Z,95.20
2022-12-25T22:42:17.277Z,95.20
2022-12-25T22:45:40.891Z,95.20
2022-12-25T22:49:04.634Z,95.20
2022-12-25T22:52:29.532Z,95.10
2022-12-25T22:55:53.087Z,95.20
2022-12-25T22:59:18.901Z,95.10
2022-12-25T23:02:42.700Z,95.10
2022-12-25T23:06:06.558Z,95.10
2022-12-25T23:09:31.922Z,95.10
2022-12-25T23:13:14.411Z,95.10
2022-12-25T23:16:38.302Z,95.10
2022-12-25T23:20:20.027Z,95.10
2022-12-25T23:24:00.942Z,95.20
2022-12-25T23:27:25.819Z,95.20
2022-12-25T23:30:48.452Z,95.10
2022-12-25T23:34:12.412Z,95.10
2022-12-25T23:37:35.974Z,95.10
2022-12-25T23:40:59.495Z,95.10
2022-12-25T23:44:25.134Z,95.20
2022-12-25T23:47:48.659Z,95.10
2022-12-25T23:51:12.296Z,95.00
2022-12-25T23:54:35.962Z,95.10
2022-12-25T23:57:59.481Z,95.10
